createdAt,value
2023-02-19T00:00:00.308Z,35.33
2023-02-19T00:00:32.164Z,35.00
2023-02-19T00:01:15.846Z,35.00
2023-02-19T00:01:48.087Z,35.00
2023-02-19T00:02:21.248Z,35.00
2023-02-19T00:02:53.043Z,35.00
2023-02-19T00:03:25.088Z,35.00
2023-02-19T00:04:02.360Z,34.33
2023-02-19T00:04:34.170Z,34.00
2023-02-19T00:05:06.309Z,34.00
2023-02-19T00:05:38.156Z,34.00
2023-02-19T00:06:11.563Z,34.00
2023-02-19T00:06:45.017Z,34.00
2023-02-19T00:07:18.094Z,34.00
2023-02-19T00:07:50.486Z,35.00
2023-02-19T00:08:22.339Z,35.67
2023-02-19T00:08:54.595Z,36.00
2023-02-19T00:09:26.458Z,36.00
2023-02-19T00:09:58.260Z,36.67
2023-02-19T00:10:30.240Z,37.00
2023-02-19T00:11:07.937Z,37.00
2023-02-19T00:11:40.669Z,37.00
2023-02-19T00:12:12.574Z,37.00
2023-02-19T00:12:44.852Z,37.00
2023-02-19T00:13:16.741Z,36.67
2023-02-19T00:13:51.271Z,36.00
2023-02-19T00:14:23.234Z,36.00
2023-02-19T00:14:57.180Z,36.00
2023-02-19T00:15:30.624Z,35.33
2023-02-19T00:16:10.685Z,34.33
2023-02-19T00:16:42.654Z,34.00
2023-02-19T00:17:14.473Z,34.00
2023-02-19T00:17:46.254Z,34.00
2023-02-19T00:18:18.273Z,34.33
2023-02-19T00:18:51.201Z,35.00
2023-02-19T00:19:23.281Z,35.00
2023-02-19T00:19:55.075Z,35.00
2023-02-19T00:20:26.993Z,35.00
2023-02-19T00:20:58.802Z,35.00
2023-02-19T00:21:31.129Z,35.00
2023-02-19T00:22:02.927Z,35.00
2023-02-19T00:22:34.671Z,35.00
2023-02-19T00:23:06.547Z,35.00
2023-02-19T00:23:38.390Z,35.00
2023-02-19T00:24:12.600Z,36.00
2023-02-19T00:24:44.477Z,36.00
2023-02-19T00:25:16.322Z,36.00
2023-02-19T00:25:48.118Z,36.00
2023-02-19T00:26:20.153Z,36.00
2023-02-19T00:26:51.996Z,36.00
2023-02-19T00:27:23.770Z,36.00
2023-02-19T00:27:55.643Z,36.00
2023-02-19T00:28:27.535Z,36.00
2023-02-19T00:29:01.045Z,37.00
2023-02-19T00:29:32.933Z,38.00
2023-02-19T00:30:04.965Z,41.33
2023-02-19T00:30:36.868Z,42.00
2023-02-19T00:31:13.450Z,42.00
2023-02-19T00:31:47.353Z,42.00
2023-02-19T00:32:19.258Z,42.00
2023-02-19T00:32:54.442Z,41.33
2023-02-19T00:33:26.362Z,41.00
2023-02-19T00:34:00.892Z,41.00
2023-02-19T00:34:32.746Z,41.00
2023-02-19T00:35:04.657Z,41.00
2023-02-19T00:35:36.573Z,41.00
2023-02-19T00:36:09.862Z,40.00
2023-02-19T00:36:43.227Z,40.00
2023-02-19T00:37:15.021Z,40.00
2023-02-19T00:37:46.873Z,40.00
2023-02-19T00:38:18.641Z,40.00
2023-02-19T00:38:51.144Z,39.33
2023-02-19T00:39:23.095Z,39.00
2023-02-19T00:39:54.875Z,38.00
2023-02-19T00:40:26.761Z,38.00
2023-02-19T00:41:02.345Z,37.33
2023-02-19T00:41:35.024Z,37.00
2023-02-19T00:42:06.831Z,37.67
2023-02-19T00:42:38.635Z,43.67
2023-02-19T00:43:10.360Z,47.00
2023-02-19T00:43:42.096Z,47.33
2023-02-19T00:44:15.299Z,50.00
2023-02-19T00:44:47.136Z,56.33
2023-02-19T00:45:19.512Z,59.67
2023-02-19T00:45:51.265Z,60.33
2023-02-19T00:46:39.544Z,59.33
2023-02-19T00:47:11.368Z,59.00
2023-02-19T00:47:43.197Z,57.33
2023-02-19T00:48:14.980Z,57.00
2023-02-19T00:48:47.458Z,56.33
2023-02-19T00:49:21.960Z,55.67
2023-02-19T00:49:53.721Z,55.00
2023-02-19T00:50:25.524Z,53.00
2023-02-19T00:50:57.294Z,47.67
2023-02-19T00:51:32.928Z,41.67
2023-02-19T00:52:04.888Z,38.67
2023-02-19T00:52:37.453Z,36.33
2023-02-19T00:53:09.305Z,35.33
2023-02-19T00:53:41.903Z,35.00
2023-02-19T00:54:14.516Z,35.33
2023-02-19T00:54:46.361Z,35.00
2023-02-19T00:55:18.288Z,35.00
2023-02-19T00:55:50.037Z,35.00
2023-02-19T00:56:22.132Z,35.00
2023-02-19T00:56:53.985Z,35.00
2023-02-19T00:57:25.818Z,35.00
2023-02-19T00:57:57.700Z,35.33
2023-02-19T00:58:29.465Z,36.00
2023-02-19T00:59:01.239Z,36.00
2023-02-19T00:59:33.055Z,36.00
2023-02-19T01:00:06.802Z,36.00
2023-02-19T01:00:39.200Z,35.67
2023-02-19T01:01:11.968Z,34.67
2023-02-19T01:01:45.099Z,33.67
2023-02-19T01:02:16.933Z,33.00
2023-02-19T01:02:48.778Z,33.00
2023-02-19T01:03:22.703Z,33.00
2023-02-19T01:03:54.547Z,33.00
2023-02-19T01:04:26.398Z,33.00
2023-02-19T01:04:58.265Z,33.00
2023-02-19T01:05:30.045Z,33.67
2023-02-19T01:06:02.174Z,34.00
2023-02-19T01:06:34.849Z,34.67
2023-02-19T01:07:07.930Z,35.00
2023-02-19T01:07:40.854Z,35.00
2023-02-19T01:08:12.623Z,35.00
2023-02-19T01:08:44.647Z,35.00
2023-02-19T01:09:17.480Z,34.67
2023-02-19T01:09:49.694Z,34.00
2023-02-19T01:10:21.513Z,34.00
2023-02-19T01:10:53.393Z,34.67
2023-02-19T01:11:25.663Z,38.00
2023-02-19T01:11:57.440Z,51.00
2023-02-19T01:12:29.392Z,49.67
2023-02-19T01:13:01.257Z,49.00
2023-02-19T01:13:34.176Z,51.00
2023-02-19T01:14:06.020Z,53.00
2023-02-19T01:14:37.872Z,53.00
2023-02-19T01:15:09.829Z,53.33
2023-02-19T01:15:41.665Z,56.67
2023-02-19T01:16:18.957Z,57.67
2023-02-19T01:16:50.881Z,56.00
2023-02-19T01:17:22.972Z,54.67
2023-02-19T01:17:54.828Z,54.00
2023-02-19T01:18:27.161Z,54.33
2023-02-19T01:18:59.664Z,55.33
2023-02-19T01:19:31.480Z,55.00
2023-02-19T01:20:04.035Z,55.00
2023-02-19T01:20:39.193Z,55.00
2023-02-19T01:21:30.817Z,56.67
2023-02-19T01:22:02.573Z,58.00
2023-02-19T01:22:34.402Z,58.67
2023-02-19T01:23:06.381Z,59.67
2023-02-19T01:23:38.339Z,61.33
2023-02-19T01:24:10.252Z,63.00
2023-02-19T01:24:42.132Z,63.00
2023-02-19T01:25:13.950Z,65.00
2023-02-19T01:25:45.791Z,67.67
2023-02-19T01:26:30.456Z,67.33
2023-02-19T01:27:02.218Z,65.67
2023-02-19T01:27:34.046Z,65.00
2023-02-19T01:28:06.395Z,64.00
2023-02-19T01:28:38.178Z,63.67
2023-02-19T01:29:10.068Z,62.33
2023-02-19T01:29:45.607Z,61.33
2023-02-19T01:30:17.865Z,59.00
2023-02-19T01:30:49.653Z,56.00
2023-02-19T01:31:24.121Z,51.33
2023-02-19T01:31:56.322Z,43.67
2023-02-19T01:32:28.292Z,38.00
2023-02-19T01:33:00.027Z,36.00
2023-02-19T01:33:31.968Z,33.00
2023-02-19T01:34:04.700Z,30.33
2023-02-19T01:34:36.523Z,30.00
2023-02-19T01:35:08.869Z,29.00
2023-02-19T01:35:40.952Z,28.67
2023-02-19T01:36:14.437Z,29.33
2023-02-19T01:36:46.248Z,31.00
2023-02-19T01:37:18.205Z,31.33
2023-02-19T01:37:50.058Z,32.00
2023-02-19T01:38:21.928Z,32.33
2023-02-19T01:38:54.140Z,33.33
2023-02-19T01:39:25.867Z,34.00
2023-02-19T01:39:57.780Z,34.33
2023-02-19T01:40:29.790Z,35.00
2023-02-19T01:41:04.154Z,35.67
2023-02-19T01:41:39.584Z,36.00
2023-02-19T01:42:15.206Z,36.00
2023-02-19T01:42:47.091Z,35.33
2023-02-19T01:43:18.851Z,33.67
2023-02-19T01:43:59.316Z,31.67
2023-02-19T01:44:30.993Z,30.00
2023-02-19T01:45:23.276Z,29.00
2023-02-19T01:45:55.648Z,29.00
2023-02-19T01:46:36.664Z,29.00
2023-02-19T01:47:08.589Z,29.00
2023-02-19T01:47:40.670Z,29.00
2023-02-19T01:48:45.382Z,29.00
2023-02-19T01:49:48.975Z,29.00
2023-02-19T01:50:21.149Z,30.33
2023-02-19T01:50:58.733Z,34.67
2023-02-19T01:51:34.854Z,40.67
2023-02-19T01:52:13.782Z,45.00
2023-02-19T01:52:45.942Z,49.67
2023-02-19T01:53:24.087Z,50.67
2023-02-19T01:54:00.928Z,50.33
2023-02-19T01:54:40.875Z,51.67
2023-02-19T01:55:14.197Z,50.67
2023-02-19T01:55:50.212Z,49.33
2023-02-19T01:56:25.779Z,47.00
2023-02-19T01:56:59.936Z,44.33
2023-02-19T01:57:38.561Z,41.33
2023-02-19T01:58:10.951Z,38.33
2023-02-19T01:58:43.833Z,37.00
2023-02-19T01:59:17.288Z,37.00
2023-02-19T01:59:55.384Z,37.00
2023-02-19T02:00:27.676Z,36.67
2023-02-19T02:01:03.126Z,37.00
2023-02-19T02:01:38.784Z,37.00
2023-02-19T02:02:10.993Z,37.00
2023-02-19T02:02:48.372Z,37.00
2023-02-19T02:03:21.140Z,36.00
2023-02-19T02:03:53.520Z,35.33
2023-02-19T02:04:26.677Z,34.00
2023-02-19T02:05:00.813Z,33.00
2023-02-19T02:06:16.888Z,32.00
2023-02-19T02:06:53.354Z,30.33
2023-02-19T02:07:43.943Z,30.00
2023-02-19T02:08:36.560Z,30.00
2023-02-19T02:09:27.527Z,29.00
2023-02-19T02:10:18.202Z,28.00
2023-02-19T02:10:52.232Z,27.00
2023-02-19T02:11:24.661Z,27.00
2023-02-19T02:11:56.568Z,27.00
2023-02-19T02:12:28.372Z,27.00
2023-02-19T02:13:00.267Z,26.00
2023-02-19T02:13:35.601Z,26.00
2023-02-19T02:14:07.971Z,26.00
2023-02-19T02:14:44.434Z,26.00
2023-02-19T02:15:17.637Z,25.67
2023-02-19T02:16:20.110Z,25.00
2023-02-19T02:16:55.661Z,25.00
2023-02-19T02:17:44.838Z,25.00
2023-02-19T02:20:07.411Z,26.00
2023-02-19T02:20:51.724Z,26.00
2023-02-19T02:21:56.595Z,26.00
2023-02-19T02:22:37.928Z,27.00
2023-02-19T02:23:41.791Z,27.67
2023-02-19T02:24:31.796Z,28.00
2023-02-19T02:25:06.352Z,29.00
2023-02-19T02:25:38.064Z,28.33
2023-02-19T02:26:33.088Z,28.00
2023-02-19T02:27:23.133Z,28.33
2023-02-19T02:28:53.879Z,29.00
2023-02-19T02:29:56.168Z,28.00
2023-02-19T02:30:54.990Z,28.00
2023-02-19T02:31:35.287Z,28.00
2023-02-19T02:32:13.829Z,28.00
2023-02-19T02:33:25.950Z,28.00
2023-02-19T02:36:09.363Z,28.00
2023-02-19T02:36:46.912Z,28.00
2023-02-19T03:08:29.992Z,46.00
2023-02-19T03:09:30.380Z,46.67
2023-02-19T03:10:08.163Z,44.67
2023-02-19T03:11:30.270Z,44.00
2023-02-19T03:12:24.294Z,43.00
2023-02-19T03:13:18.941Z,42.00
2023-02-19T03:14:23.139Z,42.00
2023-02-19T03:15:21.572Z,41.00
2023-02-19T03:16:18.808Z,41.00
2023-02-19T03:17:10.877Z,41.00
2023-02-19T03:18:09.300Z,41.00
2023-02-19T03:19:05.034Z,41.00
2023-02-19T03:19:44.146Z,41.00
2023-02-19T03:20:21.368Z,41.00
2023-02-19T03:21:28.805Z,41.00
2023-02-19T03:22:10.913Z,41.00
2023-02-19T03:22:46.141Z,41.33
2023-02-19T03:23:20.788Z,41.67
2023-02-19T03:24:12.527Z,41.00
2023-02-19T03:25:11.107Z,42.00
2023-02-19T03:26:01.750Z,42.00
2023-02-19T03:26:35.381Z,44.67
2023-02-19T03:27:27.240Z,46.00
2023-02-19T03:28:03.072Z,45.00
2023-02-19T03:28:59.637Z,45.00
2023-02-19T03:29:37.727Z,44.00
2023-02-19T03:30:21.209Z,42.67
2023-02-19T03:30:55.864Z,42.00
2023-02-19T03:31:32.178Z,42.00
2023-02-19T03:32:13.041Z,42.00
2023-02-19T03:32:54.883Z,42.00
2023-02-19T03:33:29.989Z,42.00
2023-02-19T03:34:08.770Z,42.00
2023-02-19T03:34:48.424Z,43.00
2023-02-19T03:35:27.576Z,43.00
2023-02-19T03:36:06.579Z,43.00
2023-02-19T03:36:44.801Z,42.00
2023-02-19T03:37:28.600Z,42.00
2023-02-19T03:38:22.121Z,42.00
2023-02-19T03:39:02.589Z,42.00
2023-02-19T03:39:44.384Z,42.00
2023-02-19T03:40:17.016Z,42.00
2023-02-19T03:41:10.909Z,42.00
2023-02-19T03:42:10.582Z,42.00
2023-02-19T03:43:12.088Z,41.33
2023-02-19T03:43:52.644Z,41.33
2023-02-19T03:44:45.688Z,42.00
2023-02-19T03:45:38.930Z,41.33
2023-02-19T03:46:42.541Z,41.00
2023-02-19T03:47:19.409Z,41.00
2023-02-19T03:48:12.523Z,41.00
2023-02-19T03:49:10.664Z,40.00
2023-02-19T03:49:45.489Z,39.00
2023-02-19T03:50:34.971Z,39.00
2023-02-19T03:51:15.259Z,39.00
2023-02-19T03:52:28.879Z,37.67
2023-02-19T03:53:52.958Z,37.00
2023-02-19T03:55:02.760Z,37.00
2023-02-19T03:55:34.442Z,37.33
2023-02-19T03:56:39.633Z,38.00
2023-02-19T03:57:45.271Z,39.00
2023-02-19T03:58:20.343Z,40.00
2023-02-19T03:59:09.175Z,40.00
2023-02-19T04:00:23.613Z,40.00
2023-02-19T04:01:13.768Z,40.00
2023-02-19T04:02:46.902Z,38.67
2023-02-19T04:04:01.693Z,38.00
2023-02-19T04:04:39.866Z,38.67
2023-02-19T04:05:17.736Z,39.00
2023-02-19T04:05:57.505Z,40.00
2023-02-19T04:06:33.190Z,40.00
2023-02-19T04:07:05.649Z,40.00
2023-02-19T04:07:45.385Z,40.00
2023-02-19T04:08:22.402Z,41.33
2023-02-19T04:08:59.488Z,42.00
2023-02-19T04:09:38.193Z,42.00
2023-02-19T04:10:10.404Z,42.00
2023-02-19T04:10:44.357Z,42.00
2023-02-19T04:11:18.824Z,42.00
2023-02-19T04:11:53.262Z,42.00
2023-02-19T04:12:25.680Z,42.00
2023-02-19T04:13:07.045Z,42.00
2023-02-19T04:14:05.490Z,42.00
2023-02-19T04:15:21.224Z,42.00
2023-02-19T04:15:58.413Z,42.00
2023-02-19T04:17:08.938Z,41.00
2023-02-19T04:17:57.530Z,41.00
2023-02-19T04:18:36.435Z,42.00
2023-02-19T04:19:13.582Z,43.00
2023-02-19T04:19:50.290Z,43.00
2023-02-19T04:20:27.674Z,43.00
2023-02-19T04:21:01.511Z,43.33
2023-02-19T04:22:12.522Z,44.00
2023-02-19T04:22:44.926Z,44.00
2023-02-19T04:23:24.184Z,44.00
2023-02-19T04:24:00.990Z,44.00
2023-02-19T04:24:41.454Z,44.00
2023-02-19T04:25:13.323Z,43.67
2023-02-19T04:25:49.962Z,43.00
2023-02-19T04:26:23.453Z,43.00
2023-02-19T04:26:56.492Z,43.00
2023-02-19T04:27:28.740Z,43.67
2023-02-19T04:28:00.741Z,46.33
2023-02-19T04:28:33.169Z,48.00
2023-02-19T04:29:05.002Z,48.00
2023-02-19T04:29:39.170Z,47.67
2023-02-19T04:30:14.732Z,47.00
2023-02-19T04:30:47.163Z,47.00
2023-02-19T04:31:19.159Z,47.00
2023-02-19T04:31:51.126Z,47.00
2023-02-19T04:32:23.038Z,46.67
2023-02-19T04:32:54.926Z,46.00
2023-02-19T04:33:26.749Z,46.00
2023-02-19T04:33:58.586Z,45.00
2023-02-19T04:34:30.397Z,44.67
2023-02-19T04:35:02.170Z,44.00
2023-02-19T04:35:33.935Z,43.33
2023-02-19T04:36:07.353Z,43.00
2023-02-19T04:36:39.323Z,43.67
2023-02-19T04:37:11.539Z,44.33
2023-02-19T04:37:43.530Z,46.00
2023-02-19T04:38:15.494Z,48.33
2023-02-19T04:38:47.269Z,51.00
2023-02-19T04:39:19.262Z,52.33
2023-02-19T04:39:51.060Z,52.00
2023-02-19T04:40:22.871Z,51.67
2023-02-19T04:40:54.748Z,51.00
2023-02-19T04:41:26.878Z,51.00
2023-02-19T04:41:58.913Z,50.33
2023-02-19T04:42:30.844Z,49.67
2023-02-19T04:43:02.700Z,48.67
2023-02-19T04:43:34.476Z,47.67
2023-02-19T04:44:06.348Z,47.00
2023-02-19T04:45:10.505Z,71.33
2023-02-19T04:45:42.354Z,74.33
2023-02-19T04:46:14.255Z,67.00
2023-02-19T04:46:46.730Z,63.33
2023-02-19T04:47:18.533Z,62.00
2023-02-19T04:47:50.386Z,61.00
2023-02-19T04:48:22.297Z,60.33
2023-02-19T04:48:54.091Z,60.00
2023-02-19T04:49:25.865Z,59.00
2023-02-19T04:49:57.670Z,58.00
2023-02-19T04:50:29.567Z,56.67
2023-02-19T04:51:06.606Z,55.00
2023-02-19T04:51:40.187Z,52.33
2023-02-19T04:52:12.867Z,51.00
2023-02-19T04:52:44.696Z,50.00
2023-02-19T04:53:16.568Z,49.67
2023-02-19T04:53:48.398Z,49.00
2023-02-19T04:54:20.299Z,49.00
2023-02-19T04:54:52.669Z,49.00
2023-02-19T04:55:24.554Z,49.00
2023-02-19T04:55:56.366Z,49.00
2023-02-19T04:56:29.798Z,49.00
2023-02-19T04:57:01.747Z,48.33
2023-02-19T04:57:33.632Z,48.00
2023-02-19T04:58:05.831Z,47.33
2023-02-19T04:58:38.486Z,45.67
2023-02-19T04:59:10.326Z,44.33
2023-02-19T04:59:42.178Z,44.00
2023-02-19T05:00:14.175Z,44.00
2023-02-19T05:00:45.997Z,44.00
2023-02-19T05:01:18.059Z,43.33
2023-02-19T05:01:49.896Z,42.33
2023-02-19T05:02:21.744Z,42.00
2023-02-19T05:02:55.826Z,42.00
2023-02-19T05:03:27.662Z,42.00
2023-02-19T05:03:59.419Z,42.00
2023-02-19T05:04:31.324Z,42.00
2023-02-19T05:05:03.882Z,42.00
2023-02-19T05:05:35.947Z,42.00
2023-02-19T05:06:11.642Z,41.67
2023-02-19T05:06:43.473Z,41.00
2023-02-19T05:07:17.428Z,41.00
2023-02-19T05:08:14.383Z,41.00
2023-02-19T05:08:46.214Z,41.00
2023-02-19T05:09:18.266Z,41.00
2023-02-19T05:09:50.186Z,41.00
2023-02-19T05:10:22.432Z,41.33
2023-02-19T05:10:59.182Z,42.00
2023-02-19T05:11:31.007Z,42.33
2023-02-19T05:12:02.830Z,43.67
2023-02-19T05:12:34.858Z,44.00
2023-02-19T05:13:07.248Z,45.33
2023-02-19T05:14:12.904Z,46.00
2023-02-19T05:14:45.110Z,46.00
2023-02-19T05:15:20.787Z,46.00
2023-02-19T05:15:57.569Z,46.00
2023-02-19T05:16:29.643Z,46.00
2023-02-19T05:17:01.423Z,46.00
2023-02-19T05:17:34.659Z,45.67
2023-02-19T05:18:06.460Z,45.00
2023-02-19T05:18:38.281Z,46.00
2023-02-19T05:19:12.957Z,46.00
2023-02-19T05:19:45.052Z,46.00
2023-02-19T05:20:17.074Z,46.67
2023-02-19T05:21:21.772Z,48.00
2023-02-19T05:26:22.939Z,71.33
2023-02-19T05:26:54.788Z,90.67
2023-02-19T05:27:26.810Z,91.33
2023-02-19T05:28:17.142Z,92.67
2023-02-19T05:28:52.335Z,98.00
2023-02-19T05:29:24.118Z,97.00
2023-02-19T05:29:55.990Z,99.67
2023-02-19T05:30:27.826Z,96.00
2023-02-19T05:31:06.743Z,98.33
2023-02-19T05:31:38.669Z,104.33
2023-02-19T05:32:43.385Z,98.67
2023-02-19T05:33:20.551Z,101.33
2023-02-19T05:33:53.070Z,98.33
2023-02-19T05:34:26.334Z,96.00
2023-02-19T05:34:58.153Z,101.33
2023-02-19T05:35:29.999Z,100.67
2023-02-19T05:36:10.471Z,99.33
2023-02-19T05:36:42.290Z,99.67
2023-02-19T05:37:14.164Z,98.33
2023-02-19T05:37:45.940Z,114.33
2023-02-19T05:39:09.590Z,102.00
2023-02-19T05:40:39.350Z,98.67
2023-02-19T05:41:20.185Z,99.33
2023-02-19T05:41:52.101Z,99.00
2023-02-19T05:42:42.445Z,98.00
2023-02-19T05:43:14.804Z,97.00
2023-02-19T05:43:47.866Z,97.33
2023-02-19T05:44:19.841Z,100.33
2023-02-19T05:44:55.018Z,102.00
2023-02-19T05:45:27.030Z,100.33
2023-02-19T05:45:59.479Z,101.33
2023-02-19T05:47:03.656Z,101.33
2023-02-19T05:47:36.966Z,102.67
2023-02-19T05:48:12.955Z,102.00
2023-02-19T05:48:44.856Z,102.00
2023-02-19T05:49:17.118Z,102.00
2023-02-19T05:49:49.117Z,101.00
2023-02-19T05:50:20.946Z,101.00
2023-02-19T05:51:27.514Z,102.00
2023-02-19T05:52:03.483Z,101.00
2023-02-19T05:52:35.395Z,101.00
2023-02-19T05:53:07.202Z,101.33
2023-02-19T05:53:39.151Z,103.00
2023-02-19T05:54:11.052Z,108.33
2023-02-19T05:54:42.884Z,106.00
2023-02-19T05:55:15.925Z,104.33
2023-02-19T05:55:47.694Z,104.33
2023-02-19T05:56:40.626Z,104.00
2023-02-19T05:57:48.984Z,105.67
2023-02-19T05:58:20.813Z,103.67
2023-02-19T05:58:54.019Z,103.00
2023-02-19T05:59:26.986Z,103.67
2023-02-19T06:00:33.374Z,102.67
2023-02-19T06:01:05.306Z,102.00
2023-02-19T06:01:37.277Z,103.33
2023-02-19T06:02:41.882Z,112.67
2023-02-19T06:03:13.697Z,111.33
2023-02-19T06:03:45.599Z,110.33
2023-02-19T06:04:20.111Z,109.67
2023-02-19T06:04:52.092Z,107.33
2023-02-19T06:05:24.348Z,99.67
2023-02-19T06:05:56.136Z,99.33
2023-02-19T06:06:28.254Z,98.67
2023-02-19T06:07:00.050Z,98.00
2023-02-19T06:07:33.149Z,98.00
2023-02-19T06:08:05.166Z,97.33
2023-02-19T06:08:40.427Z,98.33
2023-02-19T06:09:15.339Z,98.00
2023-02-19T06:09:51.868Z,98.33
2023-02-19T06:10:28.365Z,103.00
2023-02-19T06:11:03.224Z,104.33
2023-02-19T06:11:35.360Z,103.33
2023-02-19T06:12:08.408Z,96.00
2023-02-19T06:12:40.337Z,93.67
2023-02-19T06:13:12.136Z,94.00
2023-02-19T06:14:17.051Z,92.33
2023-02-19T06:14:49.517Z,92.67
2023-02-19T06:15:22.155Z,94.00
2023-02-19T06:15:54.136Z,101.33
2023-02-19T06:16:26.072Z,111.00
2023-02-19T06:16:57.996Z,110.00
2023-02-19T06:17:29.842Z,107.33
2023-02-19T06:18:02.092Z,142.00
2023-02-19T06:18:34.109Z,144.00
2023-02-19T06:19:06.033Z,132.67
2023-02-19T06:19:37.880Z,123.67
2023-02-19T06:20:10.036Z,121.00
2023-02-19T06:20:43.410Z,120.33
2023-02-19T06:21:16.802Z,119.67
2023-02-19T06:21:51.169Z,118.00
2023-02-19T06:22:55.932Z,114.67
2023-02-19T06:23:30.308Z,114.00
2023-02-19T06:24:09.567Z,110.33
2023-02-19T06:24:41.402Z,102.00
2023-02-19T06:25:13.326Z,103.33
2023-02-19T06:25:45.132Z,116.33
2023-02-19T06:26:18.292Z,129.33
2023-02-19T06:26:50.057Z,141.67
2023-02-19T06:27:23.329Z,132.33
2023-02-19T06:27:55.261Z,127.33
2023-02-19T06:28:27.074Z,126.33
2023-02-19T06:28:58.908Z,124.33
2023-02-19T06:29:32.624Z,112.33
2023-02-19T06:30:04.683Z,93.33
2023-02-19T06:30:37.290Z,87.33
2023-02-19T06:31:11.552Z,83.00
2023-02-19T06:32:02.157Z,89.00
2023-02-19T06:32:34.003Z,88.67
2023-02-19T06:33:05.876Z,88.00
2023-02-19T06:33:40.634Z,86.33
2023-02-19T06:34:12.465Z,90.00
2023-02-19T06:34:44.279Z,91.00
2023-02-19T06:35:16.188Z,90.33
2023-02-19T06:35:48.031Z,91.67
2023-02-19T06:36:21.709Z,92.00
2023-02-19T06:36:53.818Z,88.00
2023-02-19T06:38:03.469Z,87.00
2023-02-19T06:38:35.315Z,88.00
2023-02-19T06:39:07.431Z,87.33
2023-02-19T06:39:39.272Z,86.33
2023-02-19T06:40:11.148Z,86.00
2023-02-19T06:41:15.607Z,92.33
2023-02-19T06:41:47.566Z,91.67
2023-02-19T06:42:52.371Z,88.33
2023-02-19T06:43:24.179Z,92.00
2023-02-19T06:43:58.283Z,110.67
2023-02-19T06:44:30.184Z,126.67
2023-02-19T06:45:01.957Z,152.67
2023-02-19T06:45:33.722Z,169.33
2023-02-19T06:46:07.017Z,175.00
2023-02-19T06:46:38.970Z,270.67
2023-02-19T06:47:10.826Z,224.00
2023-02-19T06:47:42.789Z,209.67
2023-02-19T06:48:14.615Z,199.67
2023-02-19T06:48:46.573Z,176.33
2023-02-19T06:49:18.367Z,165.67
2023-02-19T06:49:50.250Z,153.67
2023-02-19T06:50:22.263Z,136.00
2023-02-19T06:50:54.309Z,129.33
2023-02-19T06:51:28.998Z,129.00
2023-02-19T06:52:02.062Z,130.00
2023-02-19T06:52:33.983Z,130.33
2023-02-19T06:53:05.875Z,131.33
2023-02-19T06:53:37.712Z,137.33
2023-02-19T06:54:09.617Z,143.67
2023-02-19T06:54:41.853Z,167.33
2023-02-19T06:56:02.528Z,164.67
2023-02-19T06:56:39.609Z,142.67
2023-02-19T06:57:44.281Z,125.00
2023-02-19T06:58:16.051Z,126.33
2023-02-19T06:58:48.254Z,122.00
2023-02-19T06:59:20.117Z,121.00
2023-02-19T06:59:52.013Z,124.67
2023-02-19T07:00:57.197Z,128.00
2023-02-19T07:01:34.365Z,138.00
2023-02-19T07:02:06.202Z,161.67
2023-02-19T07:02:38.009Z,186.00
2023-02-19T07:03:09.963Z,204.00
2023-02-19T07:03:41.863Z,194.00
2023-02-19T07:04:13.769Z,183.00
2023-02-19T07:04:45.630Z,173.00
2023-02-19T07:05:52.064Z,168.67
2023-02-19T07:06:27.073Z,171.67
2023-02-19T07:07:00.370Z,194.67
2023-02-19T07:07:35.846Z,186.67
2023-02-19T07:08:08.710Z,186.67
2023-02-19T07:08:40.680Z,200.00
2023-02-19T07:09:50.512Z,194.33
2023-02-19T07:10:22.262Z,208.00
2023-02-19T07:11:35.172Z,190.00
2023-02-19T07:12:09.879Z,174.00
2023-02-19T07:12:45.277Z,161.00
2023-02-19T07:13:17.068Z,163.00
2023-02-19T07:13:48.937Z,179.67
2023-02-19T07:14:21.673Z,186.67
2023-02-19T07:14:53.417Z,188.33
2023-02-19T07:15:25.187Z,186.00
2023-02-19T07:16:08.137Z,186.33
2023-02-19T07:17:12.431Z,188.33
2023-02-19T07:17:44.354Z,196.33
2023-02-19T07:18:47.778Z,192.33
2023-02-19T07:19:21.516Z,196.33
2023-02-19T07:19:53.418Z,196.00
2023-02-19T07:20:25.200Z,188.33
2023-02-19T07:21:32.870Z,160.33
2023-02-19T07:22:05.356Z,158.33
2023-02-19T07:22:37.293Z,153.00
2023-02-19T07:23:09.266Z,147.33
2023-02-19T07:23:42.707Z,149.67
2023-02-19T07:24:14.605Z,152.33
2023-02-19T07:24:47.942Z,134.67
2023-02-19T07:25:52.249Z,140.33
2023-02-19T07:26:24.824Z,210.67
2023-02-19T07:26:56.924Z,339.67
2023-02-19T07:27:32.421Z,284.00
2023-02-19T07:28:06.396Z,205.33
2023-02-19T07:28:38.624Z,186.00
2023-02-19T07:29:10.572Z,183.00
2023-02-19T07:29:42.401Z,152.33
2023-02-19T07:30:46.568Z,172.33
2023-02-19T07:31:21.170Z,177.67
2023-02-19T07:31:53.108Z,177.67
2023-02-19T07:32:26.486Z,168.67
2023-02-19T07:32:58.350Z,172.00
2023-02-19T07:33:30.672Z,235.33
2023-02-19T07:34:02.500Z,198.67
2023-02-19T07:34:34.393Z,193.33
2023-02-19T07:35:06.607Z,186.33
2023-02-19T07:35:38.962Z,170.33
2023-02-19T07:36:11.552Z,157.67
2023-02-19T07:36:44.402Z,163.33
2023-02-19T07:37:16.485Z,139.33
2023-02-19T07:37:48.305Z,123.67
2023-02-19T07:38:21.824Z,119.00
2023-02-19T07:38:57.698Z,120.67
2023-02-19T07:39:29.761Z,122.33
2023-02-19T07:40:01.801Z,134.33
2023-02-19T07:40:34.688Z,148.33
2023-02-19T07:41:39.902Z,154.00
2023-02-19T07:42:11.852Z,155.67
2023-02-19T07:42:43.653Z,151.33
2023-02-19T07:43:15.518Z,131.67
2023-02-19T07:43:47.417Z,128.00
2023-02-19T07:44:19.365Z,125.00
2023-02-19T07:44:51.269Z,118.67
2023-02-19T07:45:23.192Z,127.00
2023-02-19T07:45:55.553Z,129.33
2023-02-19T07:46:27.481Z,124.67
2023-02-19T07:46:59.542Z,134.67
2023-02-19T07:47:31.494Z,139.00
2023-02-19T07:48:03.401Z,135.67
2023-02-19T07:48:36.707Z,134.67
2023-02-19T07:49:08.510Z,137.67
2023-02-19T07:49:40.409Z,126.67
2023-02-19T07:50:13.977Z,111.33
2023-02-19T07:50:57.387Z,110.00
2023-02-19T07:51:29.158Z,120.33
2023-02-19T07:52:01.097Z,124.67
2023-02-19T07:52:34.132Z,126.67
2023-02-19T07:53:06.356Z,126.67
2023-02-19T07:53:38.150Z,128.00
2023-02-19T07:54:09.974Z,129.33
2023-02-19T07:54:41.826Z,134.33
2023-02-19T07:55:13.759Z,138.00
2023-02-19T07:55:45.685Z,136.67
2023-02-19T07:56:18.827Z,131.33
2023-02-19T07:56:50.648Z,129.00
2023-02-19T07:57:22.443Z,123.33
2023-02-19T07:57:54.249Z,124.67
2023-02-19T07:58:26.044Z,131.67
2023-02-19T07:58:57.874Z,135.33
2023-02-19T07:59:29.624Z,135.67
2023-02-19T08:00:01.691Z,133.00
2023-02-19T08:00:33.614Z,129.33
2023-02-19T08:01:19.562Z,129.00
2023-02-19T08:02:09.787Z,122.67
2023-02-19T08:03:00.378Z,119.67
2023-02-19T08:03:32.635Z,122.00
2023-02-19T08:04:04.573Z,123.00
2023-02-19T08:04:36.411Z,123.33
2023-02-19T08:05:08.326Z,123.33
2023-02-19T08:05:42.668Z,126.67
2023-02-19T08:06:14.450Z,163.67
2023-02-19T08:06:46.256Z,194.33
2023-02-19T08:07:18.103Z,176.00
2023-02-19T08:07:49.898Z,162.33
2023-02-19T08:08:21.732Z,156.33
2023-02-19T08:08:55.148Z,154.67
2023-02-19T08:09:28.098Z,153.67
2023-02-19T08:10:20.259Z,162.33
2023-02-19T08:11:10.796Z,161.00
2023-02-19T08:12:01.081Z,164.67
2023-02-19T08:12:51.571Z,157.67
2023-02-19T08:13:25.460Z,122.00
2023-02-19T08:13:57.225Z,116.67
2023-02-19T08:14:29.519Z,126.00
2023-02-19T08:15:01.274Z,125.33
2023-02-19T08:15:33.317Z,117.33
2023-02-19T08:16:17.054Z,117.67
2023-02-19T08:16:53.296Z,122.67
2023-02-19T08:17:25.242Z,124.67
2023-02-19T08:17:57.057Z,124.67
2023-02-19T08:18:31.579Z,125.67
2023-02-19T08:19:03.506Z,126.33
2023-02-19T08:19:35.390Z,125.67
2023-02-19T08:20:08.545Z,116.67
2023-02-19T08:20:40.927Z,107.67
2023-02-19T08:21:13.987Z,114.33
2023-02-19T08:21:45.752Z,117.67
2023-02-19T08:22:17.558Z,120.00
2023-02-19T08:22:49.296Z,121.67
2023-02-19T08:23:21.685Z,124.67
2023-02-19T08:23:53.504Z,123.33
2023-02-19T08:24:25.330Z,122.67
2023-02-19T08:24:57.113Z,123.00
2023-02-19T08:25:29.557Z,120.00
2023-02-19T08:26:02.838Z,117.00
2023-02-19T08:26:35.108Z,114.33
2023-02-19T08:27:07.496Z,103.00
2023-02-19T08:27:39.268Z,101.33
2023-02-19T08:28:12.255Z,102.67
2023-02-19T08:28:44.274Z,102.00
2023-02-19T08:29:16.102Z,102.67
2023-02-19T08:29:47.904Z,105.67
2023-02-19T08:30:19.744Z,114.00
2023-02-19T08:30:51.799Z,130.33